createdAt,value
2022-11-27T00:01:27.343Z,79.62
2022-11-27T00:03:55.329Z,80.30
2022-11-27T00:06:25.845Z,79.86
2022-11-27T00:08:53.109Z,80.09
2022-11-27T00:11:24.562Z,80.74
2022-11-27T00:13:52.411Z,80.53
2022-11-27T00:16:20.770Z,80.32
2022-11-27T00:18:48.454Z,80.19
2022-11-27T00:21:24.311Z,80.75
2022-11-27T00:23:53.022Z,80.46
2022-11-27T00:26:20.186Z,81.30
2022-11-27T00:28:47.416Z,81.29
2022-11-27T00:31:28.697Z,81.18
2022-11-27T00:33:56.833Z,81.49
2022-11-27T00:36:23.860Z,80.98
2022-11-27T00:38:51.196Z,81.72
2022-11-27T00:41:20.763Z,81.47
2022-11-27T00:43:47.935Z,81.15
2022-11-27T00:46:16.653Z,81.08
2022-11-27T00:48:44.522Z,81.17
2022-11-27T00:51:14.720Z,81.73
2022-11-27T00:53:42.265Z,81.40
2022-11-27T00:56:10.481Z,81.94
2022-11-27T00:58:37.380Z,81.43
2022-11-27T01:01:07.623Z,81.27
2022-11-27T01:03:35.388Z,81.90
2022-11-27T01:06:06.662Z,82.09
2022-11-27T01:08:34.720Z,81.67
2022-11-27T01:11:02.401Z,82.13
2022-11-27T01:13:32.509Z,82.09
2022-11-27T01:16:11.843Z,81.76
2022-11-27T01:18:41.241Z,81.73
2022-11-27T01:21:09.120Z,82.04
2022-11-27T01:23:36.203Z,82.58
2022-11-27T01:26:05.687Z,82.31
2022-11-27T01:28:33.652Z,81.68
2022-11-27T01:31:05.726Z,82.32
2022-11-27T01:33:33.265Z,82.59
2022-11-27T01:36:02.546Z,82.91
2022-11-27T01:38:31.074Z,82.77
2022-11-27T01:41:04.313Z,82.66
2022-11-27T01:43:47.961Z,82.56
2022-11-27T01:46:29.654Z,83.57
2022-11-27T01:49:11.513Z,82.54
2022-11-27T01:51:44.654Z,82.83
2022-11-27T01:54:12.128Z,83.20
2022-11-27T01:56:41.946Z,82.88
2022-11-27T01:59:08.888Z,83.00
2022-11-27T02:01:35.795Z,83.00
2022-11-27T02:04:03.300Z,82.91
2022-11-27T02:06:30.244Z,83.04
2022-11-27T02:08:57.483Z,83.16
2022-11-27T02:11:29.906Z,83.11
2022-11-27T02:14:11.238Z,83.27
2022-11-27T02:16:53.124Z,83.11
2022-11-27T02:19:28.122Z,83.19
2022-11-27T02:22:05.396Z,83.71
2022-11-27T02:24:50.761Z,83.62
2022-11-27T02:27:42.394Z,83.87
2022-11-27T02:30:10.381Z,83.81
2022-11-27T02:32:43.825Z,83.79
2022-11-27T02:35:37.512Z,83.48
2022-11-27T02:38:13.489Z,83.88
2022-11-27T02:40:45.648Z,84.07
2022-11-27T02:43:18.376Z,84.55
2022-11-27T02:45:48.959Z,84.28
2022-11-27T02:48:19.772Z,84.89
2022-11-27T02:50:48.699Z,84.68
2022-11-27T02:53:21.259Z,84.41
2022-11-27T02:55:50.641Z,84.99
2022-11-27T02:58:21.920Z,84.87
2022-11-27T03:00:50.683Z,84.52
2022-11-27T03:03:23.527Z,85.14
2022-11-27T03:05:54.206Z,84.67
2022-11-27T03:08:32.405Z,85.02
2022-11-27T03:11:25.756Z,84.78
2022-11-27T03:13:58.618Z,85.13
2022-11-27T03:17:05.170Z,85.74
2022-11-27T03:19:44.203Z,85.83
2022-11-27T03:22:11.863Z,85.86
2022-11-27T03:24:39.410Z,86.00
2022-11-27T03:27:06.974Z,86.10
2022-11-27T03:29:38.669Z,86.05
2022-11-27T03:32:06.142Z,86.75
2022-11-27T03:34:34.165Z,86.83
2022-11-27T03:37:01.533Z,87.09
2022-11-27T03:39:29.482Z,86.70
2022-11-27T03:42:17.865Z,87.01
2022-11-27T03:45:12.267Z,87.55
2022-11-27T03:47:57.983Z,86.70
2022-11-27T03:50:30.831Z,86.56
2022-11-27T03:53:07.980Z,87.53
2022-11-27T03:56:09.605Z,86.65
2022-11-27T03:58:43.675Z,87.20
2022-11-27T04:01:14.568Z,87.28
2022-11-27T04:03:41.681Z,87.79
2022-11-27T04:06:08.714Z,87.92
2022-11-27T04:08:35.585Z,87.45
2022-11-27T04:11:02.569Z,87.68
2022-11-27T04:13:29.396Z,87.29
2022-11-27T04:15:56.322Z,87.97
2022-11-27T04:18:23.237Z,88.10
2022-11-27T04:20:50.184Z,88.45
2022-11-27T04:23:17.065Z,87.60
2022-11-27T04:25:44.081Z,88.03
2022-11-27T04:28:11.368Z,88.33
2022-11-27T04:30:38.231Z,87.24
2022-11-27T04:33:05.191Z,87.80
2022-11-27T04:35:32.092Z,87.65
2022-11-27T04:37:58.989Z,88.42
2022-11-27T04:40:25.900Z,88.62
2022-11-27T04:42:52.887Z,87.69
2022-11-27T04:45:20.004Z,87.72
2022-11-27T04:47:46.872Z,88.39
2022-11-27T04:50:13.755Z,88.18
2022-11-27T04:52:40.650Z,88.24
2022-11-27T04:55:08.125Z,88.94
2022-11-27T04:57:35.063Z,88.21
2022-11-27T05:00:02.130Z,87.93
2022-11-27T05:02:29.238Z,88.06
2022-11-27T05:04:56.224Z,88.37
2022-11-27T05:07:23.469Z,88.70
2022-11-27T05:09:51.203Z,88.82
2022-11-27T05:12:18.079Z,88.75
2022-11-27T05:14:44.926Z,88.30
2022-11-27T05:17:11.960Z,88.90
2022-11-27T05:19:38.944Z,88.54
2022-11-27T05:22:05.925Z,89.11
2022-11-27T05:24:32.932Z,89.26
2022-11-27T05:26:59.821Z,88.86
2022-11-27T05:29:27.127Z,89.41
2022-11-27T05:31:54.137Z,89.02
2022-11-27T05:34:21.364Z,89.22
2022-11-27T05:36:48.586Z,89.24
2022-11-27T05:39:15.522Z,89.33
2022-11-27T05:41:43.526Z,89.00
2022-11-27T05:44:14.693Z,88.56
2022-11-27T05:46:43.797Z,89.62
2022-11-27T05:49:15.965Z,88.86
2022-11-27T05:51:49.364Z,89.22
2022-11-27T05:54:17.954Z,89.53
2022-11-27T05:56:44.989Z,89.35
2022-11-27T05:59:12.785Z,88.83
2022-11-27T06:01:39.822Z,89.12
2022-11-27T06:04:06.762Z,88.81
2022-11-27T06:06:33.684Z,88.17
2022-11-27T06:09:00.959Z,87.81
2022-11-27T06:11:27.976Z,88.84
2022-11-27T06:13:54.909Z,88.05
2022-11-27T06:16:24.069Z,87.81
2022-11-27T06:18:53.314Z,87.64
2022-11-27T06:21:21.740Z,87.99
2022-11-27T06:23:49.151Z,88.19
2022-11-27T06:26:24.440Z,88.29
2022-11-27T06:28:51.878Z,87.66
2022-11-27T06:31:21.641Z,87.34
2022-11-27T06:33:50.296Z,87.04
2022-11-27T06:36:18.360Z,87.29
2022-11-27T06:38:46.466Z,86.59
2022-11-27T06:41:16.217Z,87.11
2022-11-27T06:43:43.698Z,86.78
2022-11-27T06:46:15.543Z,86.66
2022-11-27T06:48:44.212Z,86.21
2022-11-27T06:51:14.217Z,86.80
2022-11-27T06:53:41.122Z,86.79
2022-11-27T06:56:10.620Z,86.13
2022-11-27T06:58:38.428Z,86.71
2022-11-27T07:01:12.920Z,85.85
2022-11-27T07:03:40.050Z,85.74
2022-11-27T07:06:09.121Z,86.48
2022-11-27T07:08:36.697Z,86.39
2022-11-27T07:11:06.327Z,85.69
2022-11-27T07:13:33.697Z,86.06
2022-11-27T07:16:06.118Z,85.84
2022-11-27T07:18:39.545Z,85.50
2022-11-27T07:21:06.701Z,85.29
2022-11-27T07:23:33.711Z,84.67
2022-11-27T07:26:09.371Z,82.86
2022-11-27T07:28:36.765Z,83.32
2022-11-27T07:31:04.014Z,82.76
2022-11-27T07:33:31.705Z,81.90
2022-11-27T07:36:00.765Z,82.19
2022-11-27T07:38:28.012Z,81.47
2022-11-27T07:40:55.094Z,81.26
2022-11-27T07:43:22.081Z,79.99
2022-11-27T07:45:49.117Z,80.63
2022-11-27T07:48:16.117Z,79.84
2022-11-27T07:50:42.972Z,78.79
2022-11-27T07:53:10.071Z,78.20
2022-11-27T07:55:40.710Z,78.37
2022-11-27T07:58:08.479Z,77.17
2022-11-27T08:00:36.141Z,77.09
2022-11-27T08:03:03.731Z,76.49
2022-11-27T08:05:33.521Z,76.71
2022-11-27T08:08:01.581Z,76.20
2022-11-27T08:10:28.562Z,75.34
2022-11-27T08:12:55.391Z,75.46
2022-11-27T08:15:22.295Z,75.23
2022-11-27T08:17:49.163Z,75.41
2022-11-27T08:20:16.291Z,75.65
2022-11-27T08:22:43.213Z,75.69
2022-11-27T08:25:10.176Z,75.61
2022-11-27T08:27:37.085Z,74.94
2022-11-27T08:30:05.268Z,74.47
2022-11-27T08:32:32.615Z,74.01
2022-11-27T08:34:59.597Z,72.07
2022-11-27T08:37:26.531Z,71.80
2022-11-27T08:39:53.575Z,71.57
2022-11-27T08:42:20.565Z,71.60
2022-11-27T08:44:47.459Z,71.67
2022-11-27T08:47:15.667Z,72.30
2022-11-27T08:49:46.304Z,71.63
2022-11-27T08:52:13.779Z,70.86
2022-11-27T08:54:40.886Z,71.49
2022-11-27T08:57:07.968Z,71.58
2022-11-27T08:59:34.903Z,70.30
2022-11-27T09:02:01.805Z,70.11
2022-11-27T09:04:29.177Z,70.27
2022-11-27T09:06:58.757Z,69.44
2022-11-27T09:09:25.896Z,69.56
2022-11-27T09:11:55.176Z,70.24
2022-11-27T09:14:22.153Z,70.25
2022-11-27T09:16:49.298Z,69.42
2022-11-27T09:19:17.257Z,69.30
2022-11-27T09:21:44.281Z,69.68
2022-11-27T09:24:11.152Z,69.71
2022-11-27T09:26:39.284Z,68.75
2022-11-27T09:29:06.500Z,68.97
2022-11-27T09:31:33.474Z,68.81
2022-11-27T09:34:00.366Z,69.14
2022-11-27T09:36:27.449Z,69.90
2022-11-27T09:38:54.716Z,68.13
2022-11-27T09:41:42.373Z,67.29
2022-11-27T09:44:24.070Z,66.33
2022-11-27T10:17:21.632Z,65.85
2022-11-27T10:19:53.310Z,64.20
2022-11-27T10:22:32.510Z,64.92
2022-11-27T10:25:25.588Z,63.41
2022-11-27T10:28:10.394Z,62.92
2022-11-27T10:30:43.318Z,63.06
2022-11-27T10:33:18.041Z,62.05
2022-11-27T10:35:48.227Z,61.56
2022-11-27T10:38:22.471Z,61.87
2022-11-27T10:41:09.788Z,62.49
2022-11-27T10:43:39.112Z,62.58
2022-11-27T10:46:28.039Z,62.03
2022-11-27T10:48:54.989Z,62.52
2022-11-27T10:51:30.130Z,62.73
2022-11-27T10:53:59.483Z,61.95
2022-11-27T10:56:38.006Z,61.38
2022-11-27T10:59:32.831Z,61.49
2022-11-27T11:02:03.487Z,61.88
2022-11-27T11:04:38.033Z,62.04
2022-11-27T11:07:24.412Z,60.13
2022-11-27T11:09:52.326Z,60.72
2022-11-27T11:12:21.852Z,62.11
2022-11-27T11:14:53.044Z,61.95
2022-11-27T11:17:31.373Z,60.73
2022-11-27T11:19:58.428Z,61.00
2022-11-27T11:22:25.456Z,62.06
2022-11-27T11:24:53.799Z,61.06
2022-11-27T11:27:27.333Z,61.15
2022-11-27T11:30:00.108Z,61.05
2022-11-27T11:32:31.219Z,62.20
2022-11-27T11:35:03.065Z,63.52
2022-11-27T11:37:33.639Z,64.52
2022-11-27T11:40:20.560Z,64.50
2022-11-27T11:43:01.773Z,64.02
2022-11-27T11:45:32.820Z,64.40
2022-11-27T11:48:26.970Z,65.34
2022-11-27T11:51:08.439Z,64.51
2022-11-27T11:53:58.449Z,64.02
2022-11-27T11:56:33.143Z,65.28
2022-11-27T11:59:00.052Z,64.69
2022-11-27T12:01:43.706Z,63.79
2022-11-27T12:04:13.785Z,64.19
2022-11-27T12:07:11.466Z,64.51
2022-11-27T12:09:38.237Z,64.67
2022-11-27T12:12:30.580Z,64.44
2022-11-27T12:15:22.714Z,64.59
2022-11-27T12:18:01.249Z,64.32
2022-11-27T12:20:53.931Z,64.64
2022-11-27T12:23:35.901Z,63.51
2022-11-27T12:26:11.876Z,63.53
2022-11-27T12:29:27.855Z,63.65
2022-11-27T12:32:08.639Z,64.25
2022-11-27T12:34:51.736Z,63.44
2022-11-27T12:37:40.889Z,63.55
2022-11-27T12:40:35.616Z,63.57
2022-11-27T12:43:28.336Z,64.69
2022-11-27T12:46:15.213Z,65.29
2022-11-27T12:49:13.668Z,64.91
2022-11-27T12:51:43.271Z,64.70
2022-11-27T12:54:22.644Z,64.96
2022-11-27T12:56:57.972Z,63.76
2022-11-27T12:59:34.872Z,63.77
2022-11-27T13:02:18.704Z,64.12
2022-11-27T13:04:56.889Z,63.66
2022-11-27T13:07:47.894Z,64.57
2022-11-27T13:10:26.250Z,65.12
2022-11-27T13:12:56.298Z,64.54
2022-11-27T13:15:29.557Z,64.26
2022-11-27T13:18:41.500Z,64.18
2022-11-27T13:21:15.899Z,64.76
2022-11-27T13:23:43.145Z,64.54
2022-11-27T13:26:23.340Z,64.54
2022-11-27T13:28:58.573Z,65.33
2022-11-27T13:31:31.881Z,65.55
2022-11-27T13:34:03.416Z,65.48
2022-11-27T13:36:39.892Z,65.29
2022-11-27T13:39:07.529Z,66.08
2022-11-27T13:41:40.351Z,66.20
2022-11-27T13:44:25.458Z,65.16
2022-11-27T13:46:55.639Z,65.85
2022-11-27T13:49:30.643Z,66.01
2022-11-27T13:52:17.951Z,66.95
2022-11-27T13:55:02.045Z,67.29
2022-11-27T13:57:30.396Z,66.98
2022-11-27T14:00:04.160Z,66.95
2022-11-27T14:02:47.203Z,67.59
2022-11-27T14:05:17.570Z,67.66
2022-11-27T14:07:48.077Z,68.47
2022-11-27T14:10:16.313Z,68.93
2022-11-27T14:12:54.389Z,69.04
2022-11-27T14:15:24.636Z,69.73
2022-11-27T14:18:03.757Z,70.01
2022-11-27T14:20:33.166Z,70.21
2022-11-27T14:23:11.645Z,70.63
2022-11-27T14:25:40.857Z,70.84
2022-11-27T14:28:21.739Z,70.84
2022-11-27T14:30:51.451Z,71.06
2022-11-27T14:33:28.366Z,72.17
2022-11-27T14:35:57.978Z,71.37
2022-11-27T14:38:27.159Z,72.40
2022-11-27T14:41:06.803Z,72.40
2022-11-27T14:43:33.777Z,72.73
2022-11-27T14:46:01.973Z,72.26
2022-11-27T14:48:47.642Z,72.42
2022-11-27T14:51:18.132Z,72.69
2022-11-27T14:53:52.022Z,73.08
2022-11-27T14:56:19.312Z,73.42
2022-11-27T14:58:53.397Z,73.46
2022-11-27T15:01:27.073Z,73.71
2022-11-27T15:04:06.122Z,73.77
2022-11-27T15:06:46.585Z,73.91
2022-11-27T15:09:31.773Z,74.01
2022-11-27T15:12:18.261Z,75.15
2022-11-27T15:14:52.051Z,74.43
2022-11-27T15:17:26.538Z,74.78
2022-11-27T15:19:55.674Z,74.43
2022-11-27T15:22:23.454Z,74.44
2022-11-27T15:25:01.266Z,74.72
2022-11-27T15:27:31.630Z,74.45
2022-11-27T15:30:18.839Z,75.74
2022-11-27T15:32:51.253Z,75.45
2022-11-27T15:35:24.534Z,75.70
2022-11-27T15:37:51.952Z,75.66
2022-11-27T15:40:36.103Z,75.79
2022-11-27T15:43:10.597Z,76.45
2022-11-27T15:45:38.018Z,76.43
2022-11-27T15:48:05.067Z,76.47
2022-11-27T15:50:32.280Z,76.72
2022-11-27T15:53:01.090Z,76.48
2022-11-27T15:55:28.084Z,77.24
2022-11-27T15:57:55.066Z,77.72
2022-11-27T16:00:22.262Z,78.46
2022-11-27T16:02:49.291Z,78.89
2022-11-27T16:05:16.368Z,78.49
2022-11-27T16:07:43.343Z,78.12
2022-11-27T16:10:11.345Z,78.29
2022-11-27T16:12:39.189Z,78.36
2022-11-27T16:15:07.639Z,79.44
2022-11-27T16:17:35.196Z,78.98
2022-11-27T16:20:02.206Z,78.67
2022-11-27T16:22:29.130Z,79.09
2022-11-27T16:24:56.388Z,79.47
2022-11-27T16:27:23.426Z,79.70
2022-11-27T16:29:50.455Z,79.32
2022-11-27T16:32:17.468Z,79.19
2022-11-27T16:34:44.390Z,80.55
2022-11-27T16:37:18.079Z,80.31
2022-11-27T16:39:45.494Z,80.42
2022-11-27T16:42:13.045Z,79.93
2022-11-27T16:44:40.054Z,80.57
2022-11-27T16:47:07.332Z,79.84
2022-11-27T16:49:34.641Z,79.97
2022-11-27T16:52:02.106Z,80.50
2022-11-27T16:54:29.229Z,80.05
2022-11-27T16:56:56.649Z,80.46
2022-11-27T16:59:23.765Z,81.44
2022-11-27T17:01:50.672Z,81.42
2022-11-27T17:04:20.042Z,81.95
2022-11-27T17:06:48.642Z,82.27
2022-11-27T17:09:16.112Z,82.02
2022-11-27T17:11:45.655Z,82.73
2022-11-27T17:14:12.651Z,82.65
2022-11-27T17:16:41.676Z,83.75
2022-11-27T17:19:14.236Z,83.59
2022-11-27T17:21:42.081Z,83.94
2022-11-27T17:24:16.045Z,84.29
2022-11-27T17:26:46.157Z,84.38
2022-11-27T17:29:15.450Z,85.14
2022-11-27T17:31:42.822Z,84.66
2022-11-27T17:34:12.761Z,84.82
2022-11-27T17:36:42.229Z,85.39
2022-11-27T17:39:12.397Z,85.26
2022-11-27T17:41:40.766Z,85.35
2022-11-27T17:44:07.882Z,85.29
2022-11-27T17:46:36.391Z,85.24
2022-11-27T17:49:06.097Z,85.31
2022-11-27T17:51:35.259Z,85.77
2022-11-27T17:54:03.490Z,85.49
2022-11-27T17:56:33.300Z,85.69
2022-11-27T17:59:00.999Z,86.42
2022-11-27T18:01:30.264Z,86.44
2022-11-27T18:04:04.131Z,86.41
2022-11-27T18:06:32.605Z,86.49
2022-11-27T18:09:00.397Z,85.53
2022-11-27T18:11:30.092Z,86.08
2022-11-27T18:13:59.377Z,86.25
2022-11-27T18:16:34.200Z,85.77
2022-11-27T18:19:08.284Z,85.67
2022-11-27T18:21:36.530Z,85.71
2022-11-27T18:27:09.853Z,85.98
2022-11-27T18:29:39.751Z,85.96
2022-11-27T18:32:06.993Z,85.49
2022-11-27T18:34:34.352Z,85.29
2022-11-27T18:37:01.754Z,85.55
2022-11-27T18:39:28.952Z,85.89
2022-11-27T18:41:55.965Z,85.71
2022-11-27T18:44:23.038Z,86.03
2022-11-27T18:46:50.861Z,85.85
2022-11-27T18:49:18.522Z,85.73
2022-11-27T18:51:46.476Z,85.59
2022-11-27T18:54:13.468Z,85.22
2022-11-27T18:56:40.532Z,85.54
2022-11-27T18:59:09.066Z,85.80
2022-11-27T19:01:42.357Z,85.39
2022-11-27T19:04:11.338Z,84.85
2022-11-27T19:06:39.629Z,85.08
2022-11-27T19:09:06.855Z,84.96
2022-11-27T19:11:35.224Z,85.06
2022-11-27T19:14:04.077Z,85.34
2022-11-27T19:16:36.592Z,85.55
2022-11-27T19:19:05.031Z,85.52
2022-11-27T19:21:33.789Z,85.96
2022-11-27T19:24:03.442Z,86.07
2022-11-27T19:26:32.723Z,86.25
2022-11-27T19:29:02.733Z,85.85
2022-11-27T19:31:32.186Z,85.56
2022-11-27T19:34:02.288Z,85.41
2022-11-27T19:36:31.429Z,86.21
2022-11-27T19:39:01.739Z,86.25
2022-11-27T19:41:30.911Z,86.09
2022-11-27T19:44:12.885Z,85.79
2022-11-27T19:46:41.127Z,86.02
2022-11-27T19:49:13.622Z,86.07
2022-11-27T19:51:41.221Z,85.86
2022-11-27T19:54:12.725Z,85.71
2022-11-27T19:56:42.584Z,86.09
2022-11-27T19:59:10.857Z,86.47
2022-11-27T20:01:40.518Z,86.00
2022-11-27T20:04:11.157Z,85.79
2022-11-27T20:06:39.128Z,86.84
2022-11-27T20:09:06.965Z,86.70
2022-11-27T20:11:35.765Z,86.74
2022-11-27T20:14:05.632Z,86.79
2022-11-27T20:16:34.783Z,86.64
2022-11-27T20:19:05.718Z,86.53
2022-11-27T20:21:34.898Z,87.28
2022-11-27T20:24:04.166Z,87.06
2022-11-27T20:26:31.189Z,87.27
2022-11-27T20:28:59.540Z,86.97
2022-11-27T20:31:29.641Z,87.17
2022-11-27T20:34:00.859Z,87.37
2022-11-27T20:36:30.238Z,87.40
2022-11-27T20:39:00.052Z,87.55
2022-11-27T20:41:28.913Z,87.99
2022-11-27T20:43:58.942Z,88.03
2022-11-27T20:46:26.229Z,88.35
2022-11-27T20:48:54.384Z,88.67
2022-11-27T20:51:24.282Z,88.19
2022-11-27T20:53:53.679Z,88.35
2022-11-27T20:56:21.143Z,88.93
2022-11-27T20:58:48.395Z,88.29
2022-11-27T21:01:18.025Z,88.37
2022-11-27T21:03:46.293Z,88.19
2022-11-27T21:06:15.050Z,88.82
2022-11-27T21:08:42.739Z,88.41
2022-11-27T21:11:25.227Z,88.46
2022-11-27T21:13:56.114Z,88.54
2022-11-27T21:16:25.173Z,88.13
2022-11-27T21:18:53.812Z,88.64
2022-11-27T21:21:21.466Z,89.03
2022-11-27T21:23:49.245Z,88.60
2022-11-27T21:26:18.665Z,88.82
2022-11-27T21:28:46.555Z,88.80
2022-11-27T21:31:19.481Z,89.04
2022-11-27T21:33:52.003Z,88.87
2022-11-27T21:36:20.494Z,88.95
2022-11-27T21:38:47.601Z,89.37
2022-11-27T21:41:17.159Z,89.17
2022-11-27T21:43:45.669Z,88.50
2022-11-27T21:46:20.138Z,88.97
2022-11-27T21:48:49.606Z,89.10
2022-11-27T21:51:17.511Z,88.51
2022-11-27T21:53:49.162Z,88.70
2022-11-27T21:56:18.328Z,88.26
2022-11-27T21:58:45.900Z,88.35
2022-11-27T22:01:19.265Z,88.88
2022-11-27T22:03:51.506Z,88.10
2022-11-27T22:06:19.239Z,88.72
2022-11-27T22:08:49.309Z,88.15
2022-11-27T22:11:19.668Z,87.75
2022-11-27T22:13:47.083Z,87.61
2022-11-27T22:16:19.889Z,87.02
2022-11-27T22:18:48.195Z,86.79
2022-11-27T22:21:16.388Z,86.96
2022-11-27T22:23:44.004Z,86.82
2022-11-27T22:26:16.132Z,87.36
2022-11-27T22:28:43.642Z,87.59
2022-11-27T22:31:31.279Z,87.64
2022-11-27T22:33:58.849Z,87.44
2022-11-27T22:36:32.058Z,87.97
2022-11-27T22:39:02.209Z,87.84
2022-11-27T22:41:32.276Z,88.11
2022-11-27T22:44:00.426Z,87.90
2022-11-27T22:46:34.262Z,88.35
2022-11-27T22:49:05.558Z,87.81
2022-11-27T22:51:34.543Z,88.04
2022-11-27T22:54:02.831Z,88.31
2022-11-27T22:56:30.063Z,88.19
2022-11-27T22:59:30.051Z,87.87
2022-11-27T23:01:48.626Z,88.22
2022-11-27T23:04:16.593Z,87.90
2022-11-27T23:06:48.202Z,88.25
2022-11-27T23:09:17.849Z,87.86
2022-11-27T23:11:45.525Z,87.41
2022-11-27T23:14:12.448Z,87.86
2022-11-27T23:16:39.718Z,87.76
2022-11-27T23:19:07.058Z,87.05
2022-11-27T23:21:37.628Z,87.12
2022-11-27T23:24:05.684Z,87.32
2022-11-27T23:26:33.074Z,87.04
2022-11-27T23:29:00.075Z,87.13
2022-11-27T23:31:31.504Z,87.38
2022-11-27T23:34:01.889Z,86.73
2022-11-27T23:36:30.040Z,86.55
2022-11-27T23:38:58.898Z,86.57
2022-11-27T23:41:25.829Z,86.00
2022-11-27T23:43:53.906Z,86.30
2022-11-27T23:46:23.016Z,86.23
2022-11-27T23:48:50.009Z,85.55
2022-11-27T23:51:22.261Z,85.27
2022-11-27T23:53:50.469Z,85.85
2022-11-27T23:56:26.494Z,85.09
2022-11-27T23:58:55.501Z,85.58
